Time;durP1;ratioP1;P1;durP2;ratioP2;P2;SDS_P1;SDS_P2;PMS_P1;PMS_P2;Temp;Humidity;BMP_temperature;BMP_pressure;BME280_temperature;BME280_humidity;BME280_pressure;Samples;Min_cycle;Max_cycle;Signal;HPM_P1;HPM_P2
2022/11/22 06:00:26;;;;;;;4.33;2.93;;;8.30;97.20;;;;;;1700732;29;20712;-72
2022/11/22 06:01:20;;;;;;;3.33;2.42;;;8.30;97.20;;;;;;1700715;29;20203;-72
2022/11/22 06:02:12;;;;;;;6.30;3.15;;;8.30;97.20;;;;;;1700778;29;20213;-72
2022/11/22 06:03:03;;;;;;;5.82;3.00;;;8.30;97.20;;;;;;1700271;29;20214;-72
2022/11/22 06:03:55;;;;;;;3.95;2.25;;;8.30;97.20;;;;;;1694150;29;20192;-72
2022/11/22 06:04:45;;;;;;;6.53;2.47;;;8.30;97.20;;;;;;1694116;29;20216;-72
2022/11/22 06:05:37;;;;;;;3.40;2.50;;;8.30;97.20;;;;;;1694064;29;20203;-72
2022/11/22 06:06:28;;;;;;;4.45;2.40;;;8.30;97.20;;;;;;1694167;29;20576;-72
2022/11/22 06:07:19;;;;;;;2.80;2.53;;;8.30;97.20;;;;;;1693994;29;20625;-72
2022/11/22 06:08:12;;;;;;;5.35;2.75;;;8.30;97.20;;;;;;1694036;29;20208;-72
2022/11/22 06:09:04;;;;;;;4.15;2.65;;;8.30;97.20;;;;;;1693822;29;20258;-72
2022/11/22 06:09:54;;;;;;;3.10;2.80;;;8.30;97.20;;;;;;1699560;29;20223;-72
2022/11/22 06:10:46;;;;;;;5.67;3.20;;;8.30;97.20;;;;;;1700517;29;20223;-72
2022/11/22 06:11:37;;;;;;;3.75;3.00;;;8.30;97.20;;;;;;1700800;29;20203;-72
2022/11/22 06:12:29;;;;;;;8.90;4.43;;;8.30;97.20;;;;;;1697733;29;20945;-72
2022/11/22 06:13:19;;;;;;;6.10;4.93;;;8.30;97.20;;;;;;1699645;29;20195;-72
2022/11/22 06:14:11;;;;;;;5.93;4.00;;;8.30;97.20;;;;;;1700654;29;20211;-72
2022/11/22 06:15:02;;;;;;;5.78;4.60;;;8.30;97.20;;;;;;1700701;29;20207;-72
2022/11/22 06:15:59;;;;;;;7.37;4.40;;;8.30;97.20;;;;;;1700304;29;20205;-71
2022/11/22 06:16:50;;;;;;;5.78;4.70;;;8.30;97.20;;;;;;1700378;29;20466;-71
2022/11/22 06:17:42;;;;;;;8.43;6.30;;;8.30;97.20;;;;;;1700773;29;20677;-72
2022/11/22 06:18:34;;;;;;;12.63;8.85;;;8.30;97.20;;;;;;1700053;29;20443;-72
2022/11/22 06:19:25;;;;;;;10.63;7.72;;;8.30;97.20;;;;;;1700616;29;20261;-71
2022/11/22 06:20:16;;;;;;;12.27;8.73;;;8.30;97.20;;;;;;1700494;29;20578;-72
2022/11/22 06:21:11;;;;;;;10.70;9.17;;;8.30;97.20;;;;;;1700683;29;20230;-76
2022/11/22 06:22:02;;;;;;;11.80;8.40;;;8.30;97.20;;;;;;1700681;29;20447;-73
2022/11/22 06:22:53;;;;;;;10.63;8.73;;;8.30;97.20;;;;;;1701695;29;20213;-72
2022/11/22 06:23:45;;;;;;;10.57;7.22;;;8.40;97.20;;;;;;1705726;29;20202;-72
2022/11/22 06:24:36;;;;;;;8.82;6.60;;;8.40;97.20;;;;;;1705731;29;20719;-72
2022/11/22 06:25:27;;;;;;;8.38;6.22;;;8.40;97.20;;;;;;1700660;29;20214;-72
2022/11/22 06:26:23;;;;;;;6.70;5.93;;;8.30;97.20;;;;;;1700722;29;20665;-72
2022/11/22 06:27:14;;;;;;;9.48;6.15;;;8.30;97.20;;;;;;1700461;29;20435;-73
2022/11/22 06:28:05;;;;;;;10.30;7.60;;;8.40;97.20;;;;;;1700646;29;20213;-73
2022/11/22 06:28:56;;;;;;;10.00;8.05;;;8.40;97.20;;;;;;1700044;29;20199;-73
2022/11/22 06:29:48;;;;;;;12.10;8.50;;;8.40;97.20;;;;;;1700383;29;20345;-73
2022/11/22 06:30:38;;;;;;;11.50;8.80;;;8.40;97.20;;;;;;1700352;29;20254;-73
2022/11/22 06:31:32;;;;;;;12.17;9.30;;;8.40;97.20;;;;;;1700584;29;20203;-73
2022/11/22 06:32:22;;;;;;;11.88;9.55;;;8.40;97.20;;;;;;1700663;29;20210;-72
2022/11/22 06:33:14;;;;;;;10.50;8.00;;;8.40;97.20;;;;;;1699858;29;20211;-73
2022/11/22 06:34:05;;;;;;;11.43;7.82;;;8.40;97.20;;;;;;1699399;29;20218;-73
2022/11/22 06:34:57;;;;;;;7.60;6.72;;;8.40;97.20;;;;;;1699633;29;20199;-73
2022/11/22 06:35:48;;;;;;;8.77;6.25;;;8.40;97.20;;;;;;1698777;29;20207;-73
2022/11/22 06:36:39;;;;;;;9.50;6.53;;;8.40;97.20;;;;;;1700452;29;20287;-73
2022/11/22 06:37:30;;;;;;;9.43;7.05;;;8.40;97.20;;;;;;1700226;29;20203;-73
2022/11/22 06:38:22;;;;;;;9.20;7.67;;;8.40;97.20;;;;;;1700636;29;20709;-73
2022/11/22 06:39:13;;;;;;;10.95;7.50;;;8.40;97.20;;;;;;1700611;29;20203;-73
2022/11/22 06:40:10;;;;;;;9.73;7.50;;;8.40;97.20;;;;;;1700396;29;20210;-73
2022/11/22 06:41:02;;;;;;;8.45;7.55;;;8.40;97.20;;;;;;1700588;29;20266;-75
2022/11/22 06:41:53;;;;;;;11.07;7.88;;;8.40;97.20;;;;;;1700204;29;20195;-73
2022/11/22 06:42:44;;;;;;;9.43;7.80;;;8.40;97.20;;;;;;1700631;29;20612;-73
2022/11/22 06:43:38;;;;;;;9.87;8.07;;;8.40;97.20;;;;;;1700609;29;20665;-73
2022/11/22 06:44:29;;;;;;;12.43;8.02;;;8.40;97.20;;;;;;1700075;29;21015;-72
2022/11/22 06:45:20;;;;;;;9.23;7.33;;;8.40;97.20;;;;;;1700630;29;20606;-73
2022/11/22 06:46:12;;;;;;;9.15;7.47;;;8.40;97.20;;;;;;1700241;29;20210;-73
2022/11/22 06:47:06;;;;;;;11.63;7.70;;;8.40;97.20;;;;;;1700281;29;20636;-73
2022/11/22 06:47:57;;;;;;;8.68;7.78;;;8.40;97.20;;;;;;1700696;29;20207;-73
2022/11/22 06:48:49;;;;;;;10.35;7.65;;;8.40;97.20;;;;;;1700083;29;20415;-73
2022/11/22 06:49:40;;;;;;;8.70;7.70;;;8.40;97.20;;;;;;1700549;29;20215;-73
2022/11/22 06:50:31;;;;;;;10.20;7.87;;;8.40;97.20;;;;;;1700117;29;20227;-73
2022/11/22 06:51:24;;;;;;;8.68;6.65;;;8.40;97.20;;;;;;1700723;29;20692;-73
2022/11/22 06:52:15;;;;;;;8.32;7.40;;;8.40;97.20;;;;;;1700523;29;20286;-74
2022/11/22 06:53:08;;;;;;;9.07;8.15;;;8.40;97.20;;;;;;1700434;29;20222;-74
2022/11/22 06:54:00;;;;;;;8.73;7.85;;;8.40;97.20;;;;;;1700543;29;20239;-72
2022/11/22 06:54:50;;;;;;;6.68;5.95;;;8.40;97.20;;;;;;1700491;29;20720;-73
2022/11/22 06:55:42;;;;;;;7.10;6.40;;;8.40;97.20;;;;;;1700483;29;20551;-73
2022/11/22 06:56:36;;;;;;;7.82;6.57;;;8.40;97.20;;;;;;1700469;29;20233;-73
2022/11/22 06:57:28;;;;;;;7.93;6.40;;;8.40;97.20;;;;;;1700448;29;20262;-73
2022/11/22 06:58:19;;;;;;;9.20;5.85;;;8.40;97.20;;;;;;1700500;29;20203;-73
2022/11/22 06:59:10;;;;;;;6.93;6.23;;;8.40;97.20;;;;;;1699980;29;20207;-73
2022/11/22 07:00:02;;;;;;;6.85;6.15;;;8.40;97.20;;;;;;1700466;29;20199;-73
2022/11/22 07:01:00;;;;;;;7.13;5.93;;;8.40;97.20;;;;;;1700368;29;20223;-73
2022/11/22 07:01:50;;;;;;;4.90;4.40;;;8.40;97.20;;;;;;1700541;29;20762;-73
2022/11/22 07:02:43;;;;;;;6.70;5.47;;;8.40;97.20;;;;;;1700524;29;20677;-72
2022/11/22 07:03:35;;;;;;;6.45;5.50;;;8.40;97.20;;;;;;1700525;29;20207;-74
2022/11/22 07:04:27;;;;;;;7.68;6.07;;;8.40;97.20;;;;;;1700464;29;20215;-73
2022/11/22 07:05:17;;;;;;;7.78;6.18;;;8.40;97.20;;;;;;1700284;29;20712;-73
2022/11/22 07:06:11;;;;;;;6.73;5.50;;;8.40;97.20;;;;;;1700315;29;20595;-73
2022/11/22 07:07:03;;;;;;;5.95;4.85;;;8.40;97.20;;;;;;1700269;29;20579;-74
2022/11/22 07:07:55;;;;;;;6.80;5.70;;;8.40;97.20;;;;;;1700450;29;20203;-74
2022/11/22 07:08:47;;;;;;;5.85;5.25;;;8.40;97.20;;;;;;1699986;29;20211;-74
2022/11/22 07:09:37;;;;;;;7.03;5.70;;;8.40;97.20;;;;;;1700326;29;20246;-73
2022/11/22 07:10:29;;;;;;;6.20;5.40;;;8.40;97.20;;;;;;1700315;29;20217;-73
2022/11/22 07:11:22;;;;;;;5.55;4.68;;;8.40;97.20;;;;;;1701605;29;20212;-73
2022/11/22 07:12:13;;;;;;;6.40;4.55;;;8.40;97.20;;;;;;1701662;29;20290;-73
2022/11/22 07:13:04;;;;;;;6.63;5.10;;;8.40;97.20;;;;;;1701748;29;20207;-73
2022/11/22 07:13:57;;;;;;;5.30;4.10;;;8.40;97.20;;;;;;1701808;29;20199;-73
2022/11/22 07:14:48;;;;;;;4.60;3.97;;;8.40;97.20;;;;;;1701188;29;20680;-74
2022/11/22 07:15:40;;;;;;;3.90;3.50;;;8.40;97.20;;;;;;1701705;29;20569;-73
2022/11/22 07:16:31;;;;;;;5.57;4.00;;;8.40;97.20;;;;;;1701722;29;20207;-73
2022/11/22 07:17:22;;;;;;;4.60;3.40;;;8.40;97.20;;;;;;1701709;29;20199;-73
2022/11/22 07:18:14;;;;;;;5.63;3.80;;;8.40;97.20;;;;;;1701774;29;20455;-74
2022/11/22 07:19:06;;;;;;;5.20;3.60;;;8.40;97.20;;;;;;1700976;29;20790;-73
2022/11/22 07:19:57;;;;;;;4.82;3.80;;;8.50;97.20;;;;;;1700867;29;20230;-74
2022/11/22 07:20:49;;;;;;;6.70;4.70;;;8.40;97.20;;;;;;1701600;29;20236;-74
2022/11/22 07:21:41;;;;;;;7.68;3.65;;;8.40;97.20;;;;;;1701753;29;20817;-74
2022/11/22 07:22:32;;;;;;;3.88;3.45;;;8.50;97.20;;;;;;1701685;29;20556;-75
2022/11/22 07:23:23;;;;;;;4.37;3.60;;;8.50;97.20;;;;;;1701771;29;20869;-74
2022/11/22 07:24:16;;;;;;;4.35;3.55;;;8.50;97.20;;;;;;1701456;29;20668;-74
2022/11/22 07:25:07;;;;;;;5.07;3.75;;;8.50;97.20;;;;;;1701466;29;20207;-74
2022/11/22 07:25:59;;;;;;;6.53;2.90;;;8.50;97.20;;;;;;1701709;29;20218;-73
2022/11/22 07:26:50;;;;;;;7.28;3.40;;;8.50;97.20;;;;;;1701455;29;20210;-74
2022/11/22 07:27:42;;;;;;;4.77;3.30;;;8.50;97.20;;;;;;1701816;29;20203;-75
2022/11/22 07:28:32;;;;;;;6.80;3.30;;;8.50;97.20;;;;;;1701131;29;20216;-74
2022/11/22 07:29:24;;;;;;;5.37;3.73;;;8.50;97.20;;;;;;1701646;29;20221;-74
2022/11/22 07:30:15;;;;;;;7.55;2.95;;;8.50;97.20;;;;;;1700749;29;20234;-73
2022/11/22 07:31:09;;;;;;;3.88;2.75;;;8.50;97.20;;;;;;1701312;29;20285;-73
2022/11/22 07:32:01;;;;;;;5.57;2.55;;;8.50;97.20;;;;;;1701398;29;20203;-73
2022/11/22 07:32:51;;;;;;;6.80;3.30;;;8.50;97.20;;;;;;1701455;29;20211;-74
2022/11/22 07:33:45;;;;;;;5.90;2.73;;;8.50;97.20;;;;;;1701741;29;20210;-74
2022/11/22 07:34:35;;;;;;;6.15;2.90;;;8.50;97.20;;;;;;1701549;29;20610;-73
2022/11/22 07:35:28;;;;;;;3.67;2.63;;;8.50;97.20;;;;;;1701562;29;20586;-73
2022/11/22 07:36:20;;;;;;;4.32;2.72;;;8.50;97.20;;;;;;1701731;29;20597;-74
2022/11/22 07:37:12;;;;;;;6.10;3.28;;;8.50;97.20;;;;;;1701381;29;20206;-74
2022/11/22 07:38:03;;;;;;;5.47;2.63;;;8.50;97.20;;;;;;1701743;29;20207;-73
2022/11/22 07:38:55;;;;;;;4.15;2.80;;;8.50;97.20;;;;;;1700433;29;20282;-73
2022/11/22 07:39:46;;;;;;;4.97;3.00;;;8.50;97.20;;;;;;1701433;29;20266;-73
2022/11/22 07:40:38;;;;;;;5.73;3.13;;;8.50;97.20;;;;;;1701627;29;20294;-73
2022/11/22 07:41:29;;;;;;;4.03;3.35;;;8.50;97.20;;;;;;1701652;29;20226;-73
2022/11/22 07:42:20;;;;;;;5.93;3.03;;;8.50;97.20;;;;;;1701450;29;20211;-72
2022/11/22 07:43:12;;;;;;;6.83;2.43;;;8.50;97.20;;;;;;1701599;29;20286;-73
2022/11/22 07:44:03;;;;;;;8.05;3.90;;;8.50;97.20;;;;;;1701649;29;20681;-72
2022/11/22 07:44:54;;;;;;;15.27;3.57;;;8.50;97.20;;;;;;1701268;29;20834;-73
2022/11/22 07:45:45;;;;;;;7.15;2.85;;;8.50;97.20;;;;;;1700874;29;20478;-73
2022/11/22 07:46:37;;;;;;;8.73;2.80;;;8.50;97.20;;;;;;1700377;29;20202;-72
2022/11/22 07:47:28;;;;;;;11.02;3.42;;;8.50;97.20;;;;;;1700213;29;20199;-72
2022/11/22 07:48:20;;;;;;;13.50;3.97;;;8.50;97.20;;;;;;1701155;29;20282;-72
2022/11/22 07:49:13;;;;;;;14.43;4.03;;;8.50;97.20;;;;;;1699763;29;20214;-72
2022/11/22 07:50:05;;;;;;;16.17;3.50;;;8.50;97.20;;;;;;1701455;29;20745;-72
2022/11/22 07:50:57;;;;;;;13.52;4.43;;;8.50;97.20;;;;;;1701365;29;20970;-72
2022/11/22 07:51:49;;;;;;;12.80;3.67;;;8.60;97.20;;;;;;1701651;29;20587;-72
2022/11/22 07:52:39;;;;;;;7.82;3.03;;;8.60;97.20;;;;;;1708112;29;20206;-72
2022/11/22 07:53:31;;;;;;;7.27;2.80;;;8.60;97.20;;;;;;1708119;29;20203;-72
2022/11/22 07:54:22;;;;;;;6.18;2.50;;;8.50;97.20;;;;;;1708094;29;20213;-72
2022/11/22 07:55:14;;;;;;;7.27;2.23;;;8.50;97.20;;;;;;1708131;29;20234;-72
2022/11/22 07:56:05;;;;;;;6.60;2.92;;;8.50;97.20;;;;;;1708198;29;20684;-72
2022/11/22 07:56:57;;;;;;;5.05;1.90;;;8.50;97.20;;;;;;1707519;29;20248;-72
2022/11/22 07:57:48;;;;;;;6.18;2.03;;;8.50;97.20;;;;;;1708209;29;20232;-73
2022/11/22 07:58:40;;;;;;;12.10;2.70;;;8.50;97.20;;;;;;1707456;29;20677;-72
2022/11/22 07:59:31;;;;;;;6.75;2.60;;;8.60;97.20;;;;;;1708224;29;20206;-72
2022/11/22 08:00:22;;;;;;;2.97;1.38;;;8.60;97.20;;;;;;1707707;29;20210;-72
2022/11/22 08:01:16;;;;;;;5.60;2.17;;;8.60;97.20;;;;;;1708067;29;20226;-72
2022/11/22 08:02:09;;;;;;;4.68;1.88;;;8.60;97.20;;;;;;1705951;29;20206;-72
2022/11/22 08:03:01;;;;;;;2.67;1.55;;;8.60;97.20;;;;;;1701561;29;20210;-72
2022/11/22 08:03:52;;;;;;;4.68;1.95;;;8.60;97.20;;;;;;1701409;29;20210;-72
2022/11/22 08:04:45;;;;;;;6.03;2.10;;;8.60;97.20;;;;;;1701614;29;20214;-74
2022/11/22 08:05:36;;;;;;;2.53;1.45;;;8.60;97.20;;;;;;1701475;29;20214;-74
2022/11/22 08:06:27;;;;;;;2.97;1.47;;;8.60;97.20;;;;;;1701593;29;20290;-74
2022/11/22 08:07:18;;;;;;;3.42;1.67;;;8.60;97.20;;;;;;1701242;29;20579;-74
2022/11/22 08:08:10;;;;;;;4.30;1.83;;;8.60;97.20;;;;;;1701445;29;20742;-74
2022/11/22 08:09:01;;;;;;;4.05;2.38;;;8.60;97.20;;;;;;1701006;29;20945;-74
2022/11/22 08:09:52;;;;;;;5.67;1.87;;;8.60;97.20;;;;;;1701390;29;20725;-72
2022/11/22 08:10:44;;;;;;;6.20;2.17;;;8.70;97.20;;;;;;1701400;29;20237;-72
2022/11/22 08:11:36;;;;;;;5.25;1.92;;;8.70;97.20;;;;;;1701545;29;20205;-71
2022/11/22 08:12:26;;;;;;;4.13;2.40;;;8.70;97.20;;;;;;1702429;29;20250;-72
2022/11/22 08:13:18;;;;;;;5.47;2.33;;;8.70;97.20;;;;;;1706092;29;20202;-72
2022/11/22 08:14:10;;;;;;;3.25;1.80;;;8.70;97.20;;;;;;1707011;29;20479;-72
2022/11/22 08:15:02;;;;;;;2.95;1.98;;;8.70;97.20;;;;;;1701370;29;20569;-72
2022/11/22 08:15:52;;;;;;;7.35;2.15;;;8.80;97.20;;;;;;1701475;29;20207;-72
2022/11/22 08:16:44;;;;;;;4.70;1.83;;;8.70;97.20;;;;;;1701266;29;20203;-72
2022/11/22 08:17:37;;;;;;;5.47;2.30;;;8.70;97.20;;;;;;1701458;29;20455;-72
2022/11/22 08:18:28;;;;;;;3.80;2.00;;;8.70;97.20;;;;;;1700885;29;20231;-72
2022/11/22 08:19:19;;;;;;;3.67;1.63;;;8.70;97.20;;;;;;1701297;29;20218;-72
2022/11/22 08:20:13;;;;;;;3.67;1.90;;;8.70;97.20;;;;;;1701111;29;20206;-72
2022/11/22 08:21:05;;;;;;;3.95;1.88;;;8.70;97.20;;;;;;1701336;29;21015;-72
2022/11/22 08:21:57;;;;;;;5.00;2.53;;;8.70;97.20;;;;;;1700952;29;20669;-72
2022/11/22 08:22:48;;;;;;;5.07;2.30;;;8.70;97.20;;;;;;1701412;29;20203;-72
2022/11/22 08:23:40;;;;;;;5.30;2.63;;;8.70;97.20;;;;;;1701301;29;20203;-72
2022/11/22 08:24:32;;;;;;;3.00;1.63;;;8.70;97.20;;;;;;1701403;29;20203;-72
2022/11/22 08:25:24;;;;;;;3.95;1.67;;;8.70;97.20;;;;;;1701404;29;20278;-72
2022/11/22 08:26:16;;;;;;;2.30;1.38;;;8.70;97.20;;;;;;1701263;29;20214;-72
2022/11/22 08:27:08;;;;;;;4.13;1.60;;;8.70;97.20;;;;;;1701199;29;20207;-72
2022/11/22 08:27:58;;;;;;;6.35;1.83;;;8.70;97.20;;;;;;1701278;29;20211;-72
2022/11/22 08:28:50;;;;;;;5.03;2.20;;;8.70;97.20;;;;;;1700902;29;20207;-72
2022/11/22 08:29:41;;;;;;;8.23;2.25;;;8.70;97.20;;;;;;1701296;29;20214;-72
2022/11/22 08:30:32;;;;;;;4.57;2.03;;;8.70;97.20;;;;;;1700942;29;20238;-72
2022/11/22 08:31:25;;;;;;;4.75;2.22;;;8.70;97.20;;;;;;1701582;29;20199;-72
2022/11/22 08:32:16;;;;;;;5.30;2.50;;;8.70;97.20;;;;;;1701273;29;20207;-72
2022/11/22 08:33:07;;;;;;;4.63;2.30;;;8.70;97.20;;;;;;1701299;29;20666;-72
2022/11/22 08:33:59;;;;;;;4.33;2.27;;;8.80;97.20;;;;;;1701288;29;20551;-72
2022/11/22 08:34:49;;;;;;;6.43;2.63;;;8.80;97.20;;;;;;1701344;29;20810;-72
2022/11/22 08:35:42;;;;;;;5.63;2.70;;;8.80;97.20;;;;;;1701374;29;20774;-72
2022/11/22 08:36:33;;;;;;;3.70;2.53;;;8.80;97.20;;;;;;1701274;29;20214;-72
2022/11/22 08:37:25;;;;;;;4.67;3.00;;;8.80;97.20;;;;;;1701155;29;20213;-72
2022/11/22 08:38:16;;;;;;;7.03;3.75;;;8.80;97.20;;;;;;1701335;29;20211;-72
2022/11/22 08:39:07;;;;;;;5.27;3.00;;;8.90;97.20;;;;;;1700834;29;20207;-72
2022/11/22 08:39:58;;;;;;;3.80;3.40;;;8.90;97.20;;;;;;1701050;29;20258;-72
2022/11/22 08:40:50;;;;;;;5.47;3.80;;;8.90;97.20;;;;;;1701264;29;20219;-72
2022/11/22 08:41:41;;;;;;;6.20;3.35;;;8.90;97.20;;;;;;1699909;29;20614;-73
2022/11/22 08:42:33;;;;;;;6.77;3.50;;;9.00;97.20;;;;;;1701157;29;20619;-72
2022/11/22 08:43:24;;;;;;;7.93;2.90;;;9.00;97.20;;;;;;1701314;29;20211;-72
2022/11/22 08:44:16;;;;;;;5.55;2.42;;;9.00;97.20;;;;;;1701211;29;20217;-72
2022/11/22 08:45:07;;;;;;;3.67;2.38;;;9.00;97.20;;;;;;1701286;29;20211;-72
2022/11/22 08:46:00;;;;;;;8.20;2.88;;;9.00;97.20;;;;;;1701191;29;20242;-72
2022/11/22 08:46:51;;;;;;;6.70;2.20;;;9.00;97.20;;;;;;1701013;29;20608;-72
2022/11/22 08:47:43;;;;;;;6.30;2.80;;;9.00;97.20;;;;;;1701158;29;20609;-72
2022/11/22 08:48:35;;;;;;;8.60;2.88;;;9.00;97.20;;;;;;1700619;29;20227;-72
2022/11/22 08:49:26;;;;;;;3.80;1.95;;;9.00;97.20;;;;;;1700266;29;20206;-73
2022/11/22 08:50:18;;;;;;;6.53;1.98;;;9.00;97.20;;;;;;1700992;29;20207;-72
2022/11/22 08:51:13;;;;;;;3.15;1.60;;;9.00;97.20;;;;;;1701169;29;20208;-72
2022/11/22 08:52:04;;;;;;;5.93;2.70;;;9.00;97.20;;;;;;1701156;29;20215;-72
2022/11/22 08:52:55;;;;;;;5.10;2.03;;;9.00;97.20;;;;;;1701147;29;20203;-72
2022/11/22 08:53:46;;;;;;;5.53;2.60;;;9.00;97.20;;;;;;1694630;29;20204;-72
2022/11/22 08:54:38;;;;;;;9.23;3.00;;;9.00;97.20;;;;;;1694547;29;20206;-72
2022/11/22 08:55:29;;;;;;;4.53;3.08;;;9.00;97.20;;;;;;1694760;29;20655;-73
2022/11/22 08:56:20;;;;;;;7.47;3.50;;;9.10;97.20;;;;;;1694626;29;20807;-72
2022/11/22 08:57:11;;;;;;;10.00;5.40;;;9.10;97.20;;;;;;1698585;29;20210;-72
2022/11/22 08:58:03;;;;;;;8.77;5.40;;;9.10;97.20;;;;;;1701203;29;20209;-73
2022/11/22 08:58:54;;;;;;;9.40;4.93;;;9.10;97.20;;;;;;1700555;29;20207;-72
2022/11/22 08:59:45;;;;;;;11.53;5.80;;;9.10;97.20;;;;;;1701040;29;20207;-72
2022/11/22 09:00:36;;;;;;;11.02;5.75;;;9.20;97.20;;;;;;1700992;29;20467;-72
2022/11/22 09:01:28;;;;;;;8.53;4.30;;;9.20;97.20;;;;;;1701057;29;20287;-72
2022/11/22 09:02:19;;;;;;;8.55;5.93;;;9.20;97.20;;;;;;1701014;29;20203;-72
2022/11/22 09:03:10;;;;;;;11.47;6.00;;;9.20;97.20;;;;;;1701020;29;20195;-72
2022/11/22 09:04:02;;;;;;;6.38;3.45;;;9.20;97.20;;;;;;1702065;29;20206;-72
2022/11/22 09:04:53;;;;;;;8.98;3.92;;;9.20;97.20;;;;;;1701169;29;20203;-72
2022/11/22 09:05:44;;;;;;;6.03;3.50;;;9.20;97.20;;;;;;1702889;29;20676;-73
2022/11/22 09:06:37;;;;;;;6.07;3.47;;;9.20;97.20;;;;;;1707588;29;20691;-72
2022/11/22 09:07:29;;;;;;;8.90;4.22;;;9.30;97.20;;;;;;1707501;29;20201;-72
2022/11/22 09:08:20;;;;;;;8.18;4.28;;;9.20;97.20;;;;;;1707571;29;20207;-73
2022/11/22 09:09:11;;;;;;;7.33;4.40;;;9.30;97.20;;;;;;1707176;29;20210;-73
2022/11/22 09:10:04;;;;;;;9.20;3.58;;;9.30;97.20;;;;;;1707556;29;20512;-72
2022/11/22 09:10:59;;;;;;;4.97;3.10;;;9.30;97.20;;;;;;1707496;29;20228;-72
2022/11/22 09:11:50;;;;;;;6.07;3.55;;;9.30;97.20;;;;;;1707349;29;20591;-72
2022/11/22 09:12:44;;;;;;;6.87;3.40;;;9.30;97.20;;;;;;1706948;29;20194;-73
2022/11/22 09:13:35;;;;;;;8.68;4.00;;;9.40;97.20;;;;;;1701037;29;20211;-73
2022/11/22 09:14:27;;;;;;;7.82;4.65;;;9.40;97.20;;;;;;1701084;29;20233;-72
2022/11/22 09:15:17;;;;;;;6.75;4.78;;;9.40;97.20;;;;;;1700832;29;20207;-73
2022/11/22 09:16:11;;;;;;;7.90;4.43;;;9.40;97.20;;;;;;1701137;29;20213;-73
2022/11/22 09:17:01;;;;;;;9.10;3.53;;;9.40;97.20;;;;;;1700738;29;20948;-72
2022/11/22 09:17:59;;;;;;;7.00;3.30;;;9.40;97.20;;;;;;1701036;29;20766;-73
2022/11/22 09:18:50;;;;;;;9.13;3.50;;;9.40;97.20;;;;;;1700992;29;20211;-72
2022/11/22 09:19:43;;;;;;;6.78;3.50;;;9.40;97.20;;;;;;1703816;29;20271;-72
2022/11/22 09:20:33;;;;;;;7.22;2.88;;;9.50;97.20;;;;;;1707516;29;20229;-73
2022/11/22 09:21:25;;;;;;;3.60;2.30;;;9.50;97.20;;;;;;1702016;29;20202;-72
2022/11/22 09:22:18;;;;;;;4.55;2.30;;;9.50;97.20;;;;;;1700881;29;20203;-73
2022/11/22 09:23:09;;;;;;;4.93;1.95;;;9.50;97.20;;;;;;1700965;29;20214;-72
2022/11/22 09:24:01;;;;;;;10.30;2.27;;;9.50;97.20;;;;;;1700892;29;20217;-73
2022/11/22 09:24:51;;;;;;;7.97;2.67;;;9.50;97.20;;;;;;1701046;29;20553;-73
2022/11/22 09:25:43;;;;;;;8.03;2.13;;;9.50;97.20;;;;;;1700941;29;20221;-72
2022/11/22 09:26:34;;;;;;;6.90;1.90;;;9.50;97.20;;;;;;1700925;29;20214;-72
2022/11/22 09:27:26;;;;;;;5.72;2.40;;;9.50;97.20;;;;;;1700785;29;20780;-73
2022/11/22 09:28:17;;;;;;;6.45;2.22;;;9.50;97.20;;;;;;1700935;29;20727;-72
2022/11/22 09:29:09;;;;;;;7.60;2.80;;;9.50;97.20;;;;;;1703211;29;20284;-72
2022/11/22 09:29:59;;;;;;;5.47;2.03;;;9.40;97.20;;;;;;1707381;29;20265;-72
2022/11/22 09:30:58;;;;;;;4.70;2.00;;;9.40;97.20;;;;;;1707526;29;20250;-72
2022/11/22 09:31:49;;;;;;;5.45;2.10;;;9.40;97.20;;;;;;1707310;29;20213;-72
2022/11/22 09:32:42;;;;;;;7.85;2.10;;;9.40;97.20;;;;;;1705969;29;20210;-73
2022/11/22 09:33:35;;;;;;;5.90;2.33;;;9.40;97.20;;;;;;1700167;29;20207;-72
2022/11/22 09:34:26;;;;;;;3.58;1.75;;;9.40;97.20;;;;;;1700892;29;20202;-72
2022/11/22 09:35:19;;;;;;;5.20;1.90;;;9.40;97.20;;;;;;1700896;29;20211;-72
2022/11/22 09:36:11;;;;;;;4.95;2.03;;;9.40;97.20;;;;;;1703145;29;20274;-72
2022/11/22 09:37:03;;;;;;;4.78;1.85;;;9.40;97.20;;;;;;1707351;29;20198;-73
2022/11/22 09:37:55;;;;;;;4.55;1.90;;;9.40;97.20;;;;;;1706929;29;20206;-72
2022/11/22 09:38:47;;;;;;;6.88;2.08;;;9.40;97.20;;;;;;1700086;29;20203;-73
2022/11/22 09:39:38;;;;;;;5.75;2.38;;;9.40;97.20;;;;;;1700725;29;20207;-73
2022/11/22 09:40:29;;;;;;;5.47;1.97;;;9.40;97.20;;;;;;1700800;29;20209;-73
2022/11/22 09:41:49;;;;;;;9.73;3.05;;;9.40;97.20;;;;;;1700821;29;20226;-73
2022/11/22 09:42:53;;;;;;;5.43;1.77;;;9.40;97.20;;;;;;1707414;29;20209;-73
2022/11/22 09:43:51;;;;;;;5.97;2.30;;;9.40;97.20;;;;;;1707001;29;20222;-72
2022/11/22 09:44:59;;;;;;;6.68;2.55;;;9.40;97.20;;;;;;1700825;29;20211;-72
2022/11/22 09:46:15;;;;;;;6.40;2.20;;;9.40;97.20;;;;;;1700931;29;20246;-72
2022/11/22 09:47:15;;;;;;;7.45;2.58;;;9.40;97.20;;;;;;1694162;29;20590;-73
2022/11/22 09:48:21;;;;;;;7.28;1.90;;;9.40;97.20;;;;;;1695053;29;20203;-72
2022/11/22 09:49:25;;;;;;;4.78;2.50;;;9.40;97.20;;;;;;1699722;29;20262;-73
2022/11/22 09:50:25;;;;;;;4.03;1.92;;;9.30;97.20;;;;;;1701596;29;20207;-72
2022/11/22 09:51:20;;;;;;;5.47;2.13;;;9.30;97.20;;;;;;1705329;29;20731;-72
2022/11/22 09:52:18;;;;;;;6.78;2.90;;;9.30;97.20;;;;;;1706238;29;20202;-73
2022/11/22 09:53:16;;;;;;;7.57;2.50;;;9.30;97.20;;;;;;1700813;29;20222;-72
2022/11/22 09:54:12;;;;;;;7.18;2.72;;;9.30;97.20;;;;;;1700947;29;20596;-73
2022/11/22 09:55:09;;;;;;;4.60;2.17;;;9.30;97.20;;;;;;1700830;29;20688;-72
2022/11/22 09:56:04;;;;;;;6.80;2.47;;;9.30;97.20;;;;;;1700778;29;20218;-73
2022/11/22 09:57:00;;;;;;;5.15;2.00;;;9.20;97.20;;;;;;1700447;29;20563;-72
2022/11/22 09:58:02;;;;;;;5.85;2.33;;;9.20;97.20;;;;;;1700736;29;20580;-73
2022/11/22 09:58:58;;;;;;;5.30;2.50;;;9.10;97.20;;;;;;1700333;29;20250;-73
2022/11/22 09:59:56;;;;;;;5.70;2.25;;;9.10;97.20;;;;;;1702198;29;20211;-72
2022/11/22 10:00:48;;;;;;;4.95;2.28;;;9.10;97.20;;;;;;1707439;29;20269;-72
2022/11/22 10:01:43;;;;;;;5.95;1.95;;;9.10;97.20;;;;;;1706986;29;20202;-73
2022/11/22 10:02:37;;;;;;;4.30;1.80;;;9.00;97.20;;;;;;1707363;29;20206;-73
2022/11/22 10:03:39;;;;;;;5.18;2.33;;;9.00;97.20;;;;;;1707355;29;20202;-73
2022/11/22 10:04:36;;;;;;;6.00;2.22;;;9.00;97.20;;;;;;1707327;29;20246;-73
2022/11/22 10:05:33;;;;;;;5.60;2.15;;;9.00;97.20;;;;;;1707503;29;20265;-73
2022/11/22 10:06:29;;;;;;;7.40;2.15;;;9.00;97.20;;;;;;1702910;29;20195;-73
2022/11/22 10:07:25;;;;;;;5.05;2.70;;;9.00;97.20;;;;;;1700540;29;20207;-72
2022/11/22 10:08:33;;;;;;;7.00;2.03;;;9.00;97.20;;;;;;1703517;29;20222;-73
2022/11/22 10:09:33;;;;;;;3.13;1.90;;;9.10;97.20;;;;;;1707417;29;20214;-72
2022/11/22 10:10:31;;;;;;;5.72;1.80;;;9.10;97.20;;;;;;1702981;29;20195;-73
2022/11/22 10:11:33;;;;;;;6.60;2.83;;;9.10;97.20;;;;;;1700843;29;20215;-73
2022/11/22 10:12:31;;;;;;;8.73;2.45;;;9.10;97.20;;;;;;1700564;29;20258;-73
2022/11/22 10:13:28;;;;;;;6.32;2.80;;;9.10;97.20;;;;;;1700680;29;20196;-73
2022/11/22 10:14:29;;;;;;;6.95;2.58;;;9.10;97.20;;;;;;1703413;29;20306;-73
2022/11/22 10:15:28;;;;;;;6.05;2.05;;;9.20;97.20;;;;;;1707333;29;20198;-73
2022/11/22 10:16:25;;;;;;;3.55;1.85;;;9.20;97.20;;;;;;1706946;29;20197;-72
2022/11/22 10:17:27;;;;;;;4.55;2.00;;;9.20;97.20;;;;;;1706972;29;20217;-72
2022/11/22 10:18:23;;;;;;;6.03;1.80;;;9.20;97.20;;;;;;1707014;29;20215;-72
2022/11/22 10:19:18;;;;;;;5.63;1.85;;;9.20;97.20;;;;;;1707228;29;20214;-73
2022/11/22 10:20:14;;;;;;;6.05;2.30;;;9.20;97.20;;;;;;1700752;29;20666;-72
2022/11/22 10:21:11;;;;;;;4.50;1.95;;;9.20;97.20;;;;;;1700697;29;20219;-72
2022/11/22 10:22:07;;;;;;;6.13;2.38;;;9.20;97.20;;;;;;1698479;29;20203;-72
2022/11/22 10:22:59;;;;;;;8.30;2.05;;;9.20;97.20;;;;;;1707309;29;20187;-72
2022/11/22 10:23:53;;;;;;;5.13;1.90;;;9.20;97.20;;;;;;1703413;29;20207;-72
2022/11/22 10:24:45;;;;;;;3.58;1.75;;;9.20;97.20;;;;;;1700688;29;20214;-72
2022/11/22 10:25:38;;;;;;;9.15;2.00;;;9.10;97.20;;;;;;1700550;29;20215;-72
2022/11/22 10:26:32;;;;;;;8.70;2.60;;;9.10;97.20;;;;;;1700693;29;20892;-72
2022/11/22 10:27:28;;;;;;;6.60;1.85;;;9.10;97.20;;;;;;1700461;29;20195;-72
2022/11/22 10:28:28;;;;;;;3.75;2.03;;;9.10;97.20;;;;;;1700570;29;20282;-72
2022/11/22 10:29:28;;;;;;;5.78;2.88;;;9.00;97.20;;;;;;1700640;29;20207;-72
2022/11/22 10:30:21;;;;;;;7.28;2.50;;;9.00;97.20;;;;;;1701232;29;20668;-72
2022/11/22 10:31:16;;;;;;;7.70;2.70;;;9.00;97.20;;;;;;1707180;29;20724;-72
2022/11/22 10:32:17;;;;;;;4.32;2.30;;;9.00;97.20;;;;;;1707217;29;20207;-72
2022/11/22 10:33:16;;;;;;;5.78;1.70;;;9.00;97.20;;;;;;1707309;29;20295;-72
2022/11/22 10:34:15;;;;;;;5.32;1.83;;;9.00;97.20;;;;;;1707251;29;20211;-72
2022/11/22 10:35:38;;;;;;;6.28;2.10;;;9.00;97.20;;;;;;1707243;29;20234;-73
2022/11/22 10:36:37;;;;;;;6.70;2.47;;;9.00;97.20;;;;;;1705701;29;20190;-73
2022/11/22 10:37:37;;;;;;;6.47;2.05;;;8.90;97.20;;;;;;1707405;29;20270;-73
2022/11/22 10:39:03;;;;;;;5.80;1.80;;;9.00;97.20;;;;;;1706561;29;20230;-73
2022/11/22 10:40:07;;;;;;;6.65;2.53;;;8.90;97.20;;;;;;1706692;29;20195;-73